createdAt,value
2018-12-01T00:00:36.363Z,12.00
2018-12-01T00:01:36.294Z,12.00
2018-12-01T00:02:36.286Z,12.00
2018-12-01T00:03:36.188Z,12.20
2018-12-01T00:04:38.224Z,12.30
2018-12-01T00:05:37.865Z,12.00
2018-12-01T00:06:37.814Z,12.50
2018-12-01T00:07:37.999Z,12.40
2018-12-01T00:08:38.692Z,12.60
2018-12-01T00:09:35.843Z,11.80
2018-12-01T00:10:35.817Z,12.20
2018-12-01T00:11:35.770Z,11.50
2018-12-01T00:12:35.669Z,13.10
2018-12-01T00:13:35.632Z,12.10
2018-12-01T00:41:52.569Z,45.50
2018-12-01T00:42:51.708Z,47.90
2018-12-01T00:43:51.385Z,36.40
2018-12-01T00:44:51.755Z,43.40
2018-12-01T00:45:52.581Z,45.50
2018-12-01T00:46:51.771Z,58.10
2018-12-01T00:47:52.275Z,46.40
2018-12-01T00:48:51.766Z,57.20
2018-12-01T00:49:51.871Z,64.40
2018-12-01T00:50:53.101Z,65.40
2018-12-01T00:51:51.783Z,56.60
2018-12-01T00:52:49.691Z,43.10
2018-12-01T00:53:49.684Z,54.10
2018-12-01T00:54:49.670Z,51.30
2018-12-01T00:55:49.670Z,90.40
2018-12-01T00:56:49.665Z,48.10
2018-12-01T00:57:51.510Z,63.00
2018-12-01T00:58:49.629Z,39.10
2018-12-01T00:59:49.624Z,40.00
2018-12-01T01:00:49.627Z,52.40
2018-12-01T01:01:51.391Z,49.40
2018-12-01T01:02:51.523Z,58.80
2018-12-01T01:03:49.576Z,44.80
2018-12-01T01:04:49.562Z,58.60
2018-12-01T01:05:49.558Z,62.40
2018-12-01T01:06:49.543Z,51.60
2018-12-01T01:07:49.551Z,95.40
2018-12-01T01:08:49.517Z,57.70
2018-12-01T01:09:49.511Z,55.60
2018-12-01T01:10:49.497Z,58.60
2018-12-01T01:11:49.501Z,45.50
2018-12-01T01:12:49.477Z,67.30
2018-12-01T01:13:49.488Z,43.60
2018-12-01T01:14:49.459Z,40.90
2018-12-01T01:15:49.508Z,77.00
2018-12-01T01:16:49.442Z,44.70
2018-12-01T01:17:49.433Z,67.60
2018-12-01T01:18:49.434Z,48.10
2018-12-01T01:19:49.438Z,63.20
2018-12-01T01:20:49.393Z,43.10
2018-12-01T01:21:49.395Z,37.40
2018-12-01T01:22:49.384Z,50.00
2018-12-01T01:23:49.355Z,60.00
2018-12-01T01:24:49.991Z,52.40
2018-12-01T01:25:49.337Z,52.00
2018-12-01T01:26:49.330Z,41.10
2018-12-01T01:27:49.324Z,55.00
2018-12-01T01:28:49.318Z,45.00
2018-12-01T01:29:49.319Z,60.80
2018-12-01T01:30:49.292Z,69.60
2018-12-01T01:32:42.244Z,46.70
2018-12-01T01:33:42.403Z,47.10
2018-12-01T01:34:43.212Z,36.20
2018-12-01T01:35:42.196Z,43.80
2018-12-01T01:36:42.187Z,43.40
2018-12-01T01:37:42.181Z,46.20
2018-12-01T01:38:42.171Z,46.20
2018-12-01T01:39:42.179Z,39.90
2018-12-01T01:40:42.167Z,48.70
2018-12-01T01:41:42.859Z,37.60
2018-12-01T01:42:42.119Z,47.90
2018-12-01T01:43:42.111Z,39.60
2018-12-01T01:44:42.129Z,65.80
2018-12-01T01:45:42.104Z,48.30
2018-12-01T01:46:42.081Z,44.20
2018-12-01T01:47:42.081Z,40.40
2018-12-01T01:48:42.061Z,37.30
2018-12-01T01:49:42.083Z,50.00
2018-12-01T01:50:42.062Z,50.30
2018-12-01T01:51:42.033Z,65.30
2018-12-01T01:52:42.025Z,65.40
2018-12-01T01:53:42.158Z,40.70
2018-12-01T01:54:41.999Z,46.00
2018-12-01T01:55:43.893Z,40.10
2018-12-01T01:56:44.901Z,38.50
2018-12-01T01:57:44.937Z,56.40
2018-12-01T01:58:41.959Z,39.10
2018-12-01T01:59:41.943Z,39.60
2018-12-01T02:00:41.962Z,37.00
2018-12-01T02:01:41.924Z,40.40
2018-12-01T02:02:41.954Z,63.60
2018-12-01T02:03:41.903Z,45.00
2018-12-01T02:04:41.927Z,37.70
2018-12-01T02:05:41.889Z,65.90
2018-12-01T02:06:41.875Z,43.70
2018-12-01T02:07:41.857Z,45.50
2018-12-01T02:08:41.857Z,58.00
2018-12-01T02:09:41.888Z,58.70
2018-12-01T02:10:41.831Z,54.60
2018-12-01T02:11:41.834Z,35.70
2018-12-01T02:12:41.808Z,40.70
2018-12-01T02:13:41.797Z,47.90
2018-12-01T02:14:41.805Z,40.50
2018-12-01T02:15:41.779Z,41.00
2018-12-01T02:16:41.769Z,54.10
2018-12-01T02:17:41.779Z,43.70
2018-12-01T02:18:41.748Z,58.40
2018-12-01T02:19:41.736Z,46.60
2018-12-01T02:20:42.363Z,45.90
2018-12-01T02:21:42.384Z,43.90
2018-12-01T02:22:41.708Z,41.60
2018-12-01T02:23:41.686Z,45.00
2018-12-01T02:24:43.347Z,44.70
2018-12-01T02:25:46.404Z,40.90
2018-12-01T02:26:42.385Z,39.10
2018-12-01T02:27:42.385Z,48.90
2018-12-01T02:28:41.648Z,47.60
2018-12-01T02:29:41.635Z,49.10
2018-12-01T02:30:41.631Z,66.70
2018-12-01T02:31:41.607Z,62.40
2018-12-01T02:32:41.593Z,50.20
2018-12-01T02:33:41.610Z,45.90
2018-12-01T02:34:41.574Z,50.50
2018-12-01T02:35:41.576Z,49.40
2018-12-01T02:36:41.588Z,56.70
2018-12-01T02:37:41.538Z,43.30
2018-12-01T02:38:41.537Z,41.10
2018-12-01T02:39:41.545Z,45.90
2018-12-01T02:40:41.514Z,52.20
2018-12-01T02:41:41.501Z,54.40
2018-12-01T02:42:41.538Z,49.90
2018-12-01T02:43:41.480Z,47.90
2018-12-01T02:44:42.362Z,39.20
2018-12-01T02:45:41.476Z,44.50
2018-12-01T02:46:41.447Z,49.40
2018-12-01T02:47:41.488Z,39.00
2018-12-01T02:48:41.432Z,37.10
2018-12-01T02:49:41.419Z,42.70
2018-12-01T02:50:41.404Z,39.70
2018-12-01T02:51:41.395Z,38.40
2018-12-01T02:52:41.397Z,41.10
2018-12-01T02:53:42.391Z,40.50
2018-12-01T02:54:42.356Z,40.50
2018-12-01T02:55:42.917Z,45.70
2018-12-01T02:56:41.888Z,41.60
2018-12-01T02:57:42.333Z,43.90
2018-12-01T02:58:41.346Z,43.70
2018-12-01T02:59:41.324Z,47.70
2018-12-01T03:00:41.298Z,41.50
2018-12-01T03:01:41.889Z,41.60
2018-12-01T03:02:41.283Z,41.20
2018-12-01T03:03:41.268Z,40.70
2018-12-01T03:04:41.288Z,39.20
2018-12-01T03:05:41.270Z,44.30
2018-12-01T03:06:41.241Z,49.80
2018-12-01T03:07:41.230Z,48.60
2018-12-01T03:08:41.214Z,53.20
2018-12-01T03:09:41.198Z,51.70
2018-12-01T03:10:41.209Z,55.50
2018-12-01T03:11:41.185Z,51.50
2018-12-01T03:12:41.176Z,52.40
2018-12-01T03:13:41.160Z,48.90
2018-12-01T03:14:41.195Z,45.80
2018-12-01T03:15:41.151Z,42.20
2018-12-01T03:16:41.139Z,39.00
2018-12-01T03:17:41.125Z,43.60
2018-12-01T03:18:43.893Z,40.00
2018-12-01T03:19:41.087Z,42.80
2018-12-01T03:20:41.090Z,39.90
2018-12-01T03:21:41.078Z,43.70
2018-12-01T03:22:41.077Z,39.90
2018-12-01T03:23:41.105Z,44.50
2018-12-01T03:24:41.055Z,41.00
2018-12-01T03:25:41.037Z,40.40
2018-12-01T03:26:41.032Z,40.20
2018-12-01T03:27:41.010Z,40.20
2018-12-01T03:28:41.033Z,41.30
2018-12-01T03:29:41.027Z,42.20
2018-12-01T03:30:40.984Z,39.20
2018-12-01T03:31:40.973Z,42.40
2018-12-01T03:32:40.963Z,40.00
2018-12-01T03:33:40.959Z,39.90
2018-12-01T03:34:40.955Z,40.30
2018-12-01T03:35:40.947Z,42.20
2018-12-01T03:36:40.938Z,39.70
2018-12-01T03:37:40.946Z,40.70
2018-12-01T03:38:40.901Z,40.80
2018-12-01T03:39:40.887Z,41.80
2018-12-01T03:40:40.876Z,40.60
2018-12-01T03:41:40.904Z,38.60
2018-12-01T03:42:40.848Z,41.60
2018-12-01T03:43:40.843Z,41.90
2018-12-01T03:44:40.836Z,41.60
2018-12-01T03:45:40.858Z,43.20
2018-12-01T03:46:40.809Z,39.20
2018-12-01T03:47:40.838Z,41.80
2018-12-01T03:48:41.367Z,40.60
2018-12-01T03:49:40.784Z,39.50
2018-12-01T03:50:40.777Z,38.60
2018-12-01T03:51:40.760Z,41.10
2018-12-01T03:52:40.751Z,40.90
2018-12-01T03:53:42.392Z,38.20
2018-12-01T03:54:40.725Z,41.00
2018-12-01T03:55:40.735Z,42.40
2018-12-01T03:56:40.724Z,41.50
2018-12-01T03:57:40.701Z,40.70
2018-12-01T03:58:40.705Z,39.70
2018-12-01T03:59:40.676Z,40.80
2018-12-01T04:00:40.659Z,42.10
2018-12-01T04:01:40.658Z,41.20
2018-12-01T04:02:40.645Z,41.10
2018-12-01T04:03:40.625Z,41.50
2018-12-01T04:04:40.655Z,40.40
2018-12-01T04:05:40.614Z,41.90
2018-12-01T04:06:40.623Z,42.30
2018-12-01T04:07:40.586Z,39.80
2018-12-01T04:08:40.608Z,40.20
2018-12-01T04:09:40.597Z,40.40
2018-12-01T04:10:40.584Z,40.80
2018-12-01T04:11:40.548Z,38.40
2018-12-01T04:12:40.563Z,37.70
2018-12-01T04:13:40.530Z,39.30
2018-12-01T04:14:40.507Z,40.50
2018-12-01T04:15:40.515Z,41.40
2018-12-01T04:16:40.505Z,41.40
2018-12-01T04:17:40.555Z,41.10
2018-12-01T04:18:40.528Z,40.60
2018-12-01T04:19:40.465Z,40.40
2018-12-01T04:20:41.478Z,41.80
2018-12-01T04:21:40.466Z,39.20
2018-12-01T04:22:40.430Z,39.20
2018-12-01T04:23:40.421Z,39.30
2018-12-01T04:24:41.411Z,42.80
2018-12-01T04:25:40.411Z,44.50
2018-12-01T04:26:40.407Z,39.60
2018-12-01T04:27:40.396Z,40.30
2018-12-01T04:28:40.367Z,40.20
2018-12-01T04:29:40.354Z,41.10
2018-12-01T04:30:40.350Z,42.90
2018-12-01T04:31:40.373Z,41.60
2018-12-01T04:32:40.356Z,40.30
2018-12-01T04:33:40.331Z,36.90
2018-12-01T04:34:40.305Z,38.60
2018-12-01T04:35:40.296Z,42.10
2018-12-01T04:36:40.308Z,39.70
2018-12-01T04:37:40.283Z,39.10
2018-12-01T04:38:42.895Z,42.00
2018-12-01T04:39:40.254Z,40.40
2018-12-01T04:40:40.254Z,38.60
2018-12-01T04:41:40.227Z,38.00
2018-12-01T04:42:40.270Z,39.60
2018-12-01T04:43:40.207Z,40.30
2018-12-01T04:44:40.207Z,40.30
2018-12-01T04:45:40.201Z,39.80
2018-12-01T04:46:40.176Z,37.20
2018-12-01T04:47:40.888Z,39.00
2018-12-01T04:48:40.172Z,39.20
2018-12-01T04:49:40.162Z,39.50
2018-12-01T04:50:40.173Z,38.60
2018-12-01T04:51:40.124Z,39.40
2018-12-01T04:52:40.114Z,38.70
2018-12-01T04:53:40.126Z,38.80
2018-12-01T04:54:40.105Z,41.10
2018-12-01T04:55:40.083Z,40.90
2018-12-01T04:56:40.068Z,39.80
2018-12-01T04:57:40.077Z,41.70
2018-12-01T04:58:40.058Z,40.80
2018-12-01T04:59:40.081Z,40.30
2018-12-01T05:00:40.034Z,42.50
2018-12-01T05:01:40.023Z,40.90
2018-12-01T05:02:40.012Z,42.00
2018-12-01T05:03:39.996Z,40.90
2018-12-01T05:04:40.010Z,42.20
2018-12-01T05:05:39.975Z,42.20
2018-12-01T05:06:39.968Z,42.20
2018-12-01T05:07:39.950Z,43.30
2018-12-01T05:08:39.937Z,42.60
2018-12-01T05:09:39.953Z,43.20
2018-12-01T05:10:39.940Z,43.20
2018-12-01T05:11:39.917Z,44.90
2018-12-01T05:12:39.905Z,41.70
2018-12-01T05:13:39.898Z,44.30
2018-12-01T05:14:39.882Z,43.50
2018-12-01T05:15:39.910Z,43.00
2018-12-01T05:16:39.890Z,41.60
2018-12-01T05:17:39.855Z,42.80
2018-12-01T05:18:39.837Z,42.20
2018-12-01T05:19:39.832Z,43.90
2018-12-01T05:20:39.821Z,42.60
2018-12-01T05:21:39.819Z,42.50
2018-12-01T05:22:39.815Z,41.30
2018-12-01T05:23:39.792Z,42.70
2018-12-01T05:24:40.777Z,42.30
2018-12-01T05:25:39.769Z,41.40
2018-12-01T05:26:39.790Z,41.10
2018-12-01T05:27:39.770Z,42.90
2018-12-01T05:28:39.745Z,41.20
2018-12-01T05:29:40.358Z,42.30
2018-12-01T05:30:39.727Z,43.00
2018-12-01T05:31:39.705Z,42.90
2018-12-01T05:32:39.709Z,43.20
2018-12-01T05:33:39.679Z,41.60
2018-12-01T05:34:39.662Z,42.90
2018-12-01T05:35:39.687Z,40.30
2018-12-01T05:36:39.652Z,42.40
2018-12-01T05:37:39.639Z,42.20
2018-12-01T05:38:39.633Z,43.20
2018-12-01T05:39:39.617Z,42.10
2018-12-01T05:40:39.630Z,41.40
2018-12-01T05:41:39.594Z,43.10
2018-12-01T05:42:39.598Z,41.30
2018-12-01T05:43:39.577Z,41.40
2018-12-01T05:44:39.593Z,39.20
2018-12-01T05:45:39.573Z,41.10
2018-12-01T05:46:39.536Z,41.70
2018-12-01T05:47:39.530Z,39.60
2018-12-01T05:48:39.527Z,40.60
2018-12-01T05:49:39.510Z,41.20
2018-12-01T05:50:39.498Z,41.50
2018-12-01T05:51:39.515Z,41.40
2018-12-01T05:52:39.496Z,41.30
2018-12-01T05:53:39.466Z,41.80
2018-12-01T05:54:39.462Z,40.40
2018-12-01T05:55:39.452Z,40.80
2018-12-01T05:56:39.449Z,40.80
2018-12-01T05:57:39.423Z,41.20
2018-12-01T05:58:39.424Z,41.40
2018-12-01T05:59:39.410Z,43.00
2018-12-01T06:00:39.396Z,41.00
2018-12-01T06:01:39.381Z,42.10
2018-12-01T06:02:39.389Z,40.30
2018-12-01T06:03:39.379Z,41.80
2018-12-01T06:04:39.366Z,42.00
2018-12-01T06:05:39.341Z,41.60
2018-12-01T06:06:39.332Z,41.90
2018-12-01T06:07:39.322Z,41.30
2018-12-01T06:08:39.326Z,41.30
2018-12-01T06:09:39.297Z,41.60
2018-12-01T06:10:39.285Z,40.70
2018-12-01T06:11:39.283Z,41.40
2018-12-01T06:12:39.263Z,41.20
2018-12-01T06:13:39.252Z,43.10
2018-12-01T06:14:39.259Z,39.40
2018-12-01T06:15:39.234Z,42.30
2018-12-01T06:16:39.243Z,41.60
2018-12-01T06:17:39.217Z,40.60
2018-12-01T06:18:39.216Z,42.20
2018-12-01T06:19:39.219Z,40.30
2018-12-01T06:20:39.177Z,41.70
2018-12-01T06:21:39.167Z,42.70
2018-12-01T06:22:39.168Z,43.60
2018-12-01T06:23:39.152Z,42.60
2018-12-01T06:24:40.882Z,43.10
2018-12-01T06:25:40.143Z,43.10
2018-12-01T06:26:39.126Z,42.20
2018-12-01T06:27:39.105Z,44.00
2018-12-01T06:28:39.103Z,42.40
2018-12-01T06:29:39.088Z,41.50
2018-12-01T06:30:39.082Z,42.50
2018-12-01T06:31:39.076Z,43.40
2018-12-01T06:32:39.064Z,42.10
2018-12-01T06:33:39.055Z,42.20
2018-12-01T06:34:39.042Z,42.70
2018-12-01T06:35:39.020Z,42.30
2018-12-01T06:36:39.040Z,42.70
2018-12-01T06:37:39.051Z,42.10
2018-12-01T06:38:39.002Z,41.70
2018-12-01T06:39:39.025Z,40.70
2018-12-01T06:40:38.994Z,41.20
2018-12-01T06:41:38.962Z,41.20
2018-12-01T06:42:38.956Z,41.20
2018-12-01T06:43:38.944Z,40.90
2018-12-01T06:44:38.941Z,41.40
2018-12-01T06:45:38.924Z,40.40
2018-12-01T06:46:38.927Z,40.40
2018-12-01T06:47:38.913Z,41.00
2018-12-01T06:48:38.888Z,40.20
2018-12-01T06:49:38.880Z,42.10
2018-12-01T06:50:39.852Z,42.30
2018-12-01T06:51:38.858Z,40.70
2018-12-01T06:52:38.895Z,41.80
2018-12-01T06:53:38.838Z,41.60
2018-12-01T06:54:38.823Z,41.30
2018-12-01T06:55:38.818Z,40.10
2018-12-01T06:56:38.810Z,39.50
2018-12-01T06:57:38.823Z,40.20
2018-12-01T06:58:38.789Z,41.30
2018-12-01T06:59:38.771Z,40.80
2018-12-01T07:00:38.761Z,41.60
2018-12-01T07:01:38.770Z,41.90
2018-12-01T07:02:41.378Z,40.90
2018-12-01T07:03:38.731Z,42.20
2018-12-01T07:04:38.727Z,40.40
2018-12-01T07:05:38.717Z,41.40
2018-12-01T07:06:38.716Z,41.10
2018-12-01T07:07:38.714Z,38.90
2018-12-01T07:08:39.383Z,41.30
2018-12-01T07:09:38.672Z,41.30
2018-12-01T07:10:38.665Z,40.60
2018-12-01T07:11:38.655Z,41.00
2018-12-01T07:12:38.638Z,41.20
2018-12-01T07:13:38.646Z,39.80
2018-12-01T07:14:38.626Z,40.30
2018-12-01T07:15:38.607Z,39.50
2018-12-01T07:16:38.598Z,39.50
2018-12-01T07:17:38.582Z,40.90
2018-12-01T07:18:38.595Z,41.30
2018-12-01T07:19:38.579Z,39.70
2018-12-01T07:20:38.574Z,42.00
2018-12-01T07:21:38.564Z,41.90
2018-12-01T07:22:38.547Z,39.90
2018-12-01T07:23:38.540Z,41.50
2018-12-01T07:24:38.507Z,40.80
2018-12-01T07:25:38.506Z,39.70
2018-12-01T07:26:38.537Z,42.50
2018-12-01T07:27:38.492Z,41.80
2018-12-01T07:28:38.474Z,41.80
2018-12-01T07:29:38.455Z,41.60
2018-12-01T07:30:38.440Z,40.60
2018-12-01T07:31:39.900Z,41.40
2018-12-01T07:32:38.424Z,41.00
2018-12-01T07:33:38.426Z,39.80
2018-12-01T07:34:38.410Z,41.10
2018-12-01T07:35:38.393Z,41.30
2018-12-01T07:36:38.388Z,40.90
2018-12-01T07:37:38.392Z,41.80
2018-12-01T07:38:38.361Z,41.70
2018-12-01T07:39:38.359Z,41.80
2018-12-01T07:40:38.385Z,43.60
2018-12-01T07:41:38.335Z,41.90
2018-12-01T07:42:38.327Z,41.80
2018-12-01T07:43:38.351Z,45.20
2018-12-01T07:44:38.301Z,44.40
2018-12-01T07:45:38.309Z,42.00
2018-12-01T07:46:38.287Z,40.80
2018-12-01T07:47:38.273Z,41.60
2018-12-01T07:48:38.278Z,41.10
2018-12-01T07:49:38.256Z,41.20
2018-12-01T07:50:38.235Z,40.90
2018-12-01T07:51:38.225Z,40.50
2018-12-01T07:52:38.218Z,45.50
2018-12-01T07:53:38.212Z,41.60
2018-12-01T07:54:38.210Z,42.60
2018-12-01T07:55:38.191Z,44.10
2018-12-01T07:56:38.173Z,51.20
2018-12-01T07:57:38.171Z,46.40
2018-12-01T07:58:38.187Z,53.40
2018-12-01T07:59:38.151Z,44.30
2018-12-01T08:00:38.157Z,59.80
2018-12-01T08:01:38.131Z,52.00
2018-12-01T08:02:38.110Z,50.80
2018-12-01T08:03:38.116Z,49.50
2018-12-01T08:04:38.110Z,43.50
2018-12-01T08:05:38.089Z,44.30
2018-12-01T08:06:38.093Z,41.20
2018-12-01T08:07:38.090Z,43.50
2018-12-01T08:08:38.076Z,42.50
2018-12-01T08:09:39.879Z,41.60
2018-12-01T08:10:38.024Z,39.90
2018-12-01T08:11:38.036Z,41.50
2018-12-01T08:12:38.011Z,42.00
2018-12-01T08:13:38.003Z,42.40
2018-12-01T08:14:37.999Z,41.60
2018-12-01T08:15:37.983Z,41.00
2018-12-01T08:16:37.975Z,41.80
2018-12-01T08:17:37.973Z,42.70
2018-12-01T08:18:37.958Z,44.50
2018-12-01T08:19:37.940Z,42.40
2018-12-01T08:20:37.933Z,42.10
2018-12-01T08:21:37.914Z,42.70
2018-12-01T08:22:37.906Z,41.10
2018-12-01T08:23:37.909Z,44.90
2018-12-01T08:24:37.908Z,43.20
2018-12-01T08:25:37.909Z,42.10
2018-12-01T08:26:38.416Z,42.50
2018-12-01T08:27:37.861Z,38.70
2018-12-01T08:28:37.905Z,40.40
2018-12-01T08:29:37.852Z,40.30
2018-12-01T08:30:37.829Z,39.20
2018-12-01T08:31:37.807Z,40.30
2018-12-01T08:32:37.800Z,40.80
2018-12-01T08:33:37.790Z,41.30
2018-12-01T08:34:37.775Z,43.50
2018-12-01T08:35:37.784Z,40.70
2018-12-01T08:36:37.752Z,41.50
2018-12-01T08:37:37.746Z,40.70
2018-12-01T08:38:37.768Z,39.40
2018-12-01T08:39:37.724Z,40.30
2018-12-01T08:40:40.356Z,41.30
2018-12-01T08:41:37.709Z,47.90
2018-12-01T08:42:37.697Z,40.90
2018-12-01T08:43:37.902Z,40.00
2018-12-01T08:44:37.667Z,40.70
2018-12-01T08:45:37.668Z,46.10
2018-12-01T08:46:39.393Z,41.40
2018-12-01T08:47:37.642Z,42.40
2018-12-01T08:48:37.659Z,40.80
2018-12-01T08:49:37.622Z,41.40
2018-12-01T08:50:38.381Z,43.40
2018-12-01T08:51:37.598Z,40.80
2018-12-01T08:52:37.612Z,40.50
2018-12-01T08:53:37.577Z,38.60
2018-12-01T08:54:37.574Z,39.60
2018-12-01T08:55:37.566Z,39.10
2018-12-01T08:56:37.547Z,40.70
2018-12-01T08:57:37.551Z,39.50
2018-12-01T08:58:37.523Z,38.70
2018-12-01T08:59:37.529Z,40.40
2018-12-01T09:00:37.502Z,38.90
2018-12-01T09:01:37.494Z,39.40
2018-12-01T09:02:37.479Z,40.70
2018-12-01T09:03:37.510Z,37.90
2018-12-01T09:04:37.461Z,39.20
2018-12-01T09:05:37.466Z,38.00
2018-12-01T09:06:37.442Z,37.90
2018-12-01T09:07:37.436Z,37.80
2018-12-01T09:08:37.414Z,38.20
2018-12-01T09:09:37.415Z,37.70
2018-12-01T09:10:37.411Z,37.80
2018-12-01T09:11:37.382Z,39.60
2018-12-01T09:12:37.397Z,38.00
2018-12-01T09:13:37.373Z,39.00
2018-12-01T09:14:37.355Z,36.50
2018-12-01T09:15:37.376Z,36.00
2018-12-01T09:16:37.340Z,35.70
2018-12-01T09:17:37.316Z,36.60
2018-12-01T09:18:37.320Z,34.60
2018-12-01T09:19:37.293Z,34.90
2018-12-01T09:20:37.291Z,34.40
2018-12-01T09:21:37.269Z,35.60
2018-12-01T09:22:37.291Z,33.70
2018-12-01T09:23:38.274Z,33.00
2018-12-01T09:24:37.251Z,33.70
2018-12-01T09:25:37.245Z,34.00
2018-12-01T09:26:37.243Z,32.60
2018-12-01T09:27:37.251Z,32.30
2018-12-01T09:28:37.224Z,33.10
2018-12-01T09:29:37.202Z,33.00
2018-12-01T09:30:37.194Z,33.00
2018-12-01T09:31:37.163Z,33.70
2018-12-01T09:32:37.169Z,33.90
2018-12-01T09:33:37.194Z,33.70
2018-12-01T09:34:37.137Z,34.40
2018-12-01T09:35:37.125Z,32.80
2018-12-01T09:36:37.124Z,33.30
2018-12-01T09:37:37.106Z,33.50
2018-12-01T09:38:37.120Z,33.70
2018-12-01T09:39:37.115Z,32.40
2018-12-01T09:40:37.130Z,32.50
2018-12-01T09:41:38.885Z,33.30
2018-12-01T09:42:37.043Z,32.60
2018-12-01T09:43:37.074Z,33.10
2018-12-01T09:44:43.894Z,31.40
2018-12-01T09:46:31.145Z,29.80
2018-12-01T09:47:28.850Z,30.40
2018-12-01T09:48:28.916Z,30.90
2018-12-01T09:49:29.358Z,31.10
2018-12-01T09:50:30.114Z,31.40
2018-12-01T09:51:32.655Z,31.40
2018-12-01T09:52:31.115Z,30.90
2018-12-01T09:53:28.788Z,31.00
2018-12-01T09:54:29.638Z,31.50
2018-12-01T09:55:30.651Z,31.50
2018-12-01T09:56:28.784Z,32.20
2018-12-01T09:57:28.755Z,32.10
2018-12-01T09:58:30.617Z,34.20
2018-12-01T09:59:30.675Z,32.10
2018-12-01T10:00:30.621Z,31.60
2018-12-01T10:01:31.190Z,33.50
2018-12-01T10:02:31.652Z,33.60
2018-12-01T10:03:31.621Z,34.10
2018-12-01T10:04:30.643Z,34.10
2018-12-01T10:05:31.643Z,34.60
2018-12-01T10:06:32.612Z,34.70
2018-12-01T10:08:22.592Z,30.90
2018-12-01T10:09:23.258Z,31.00
2018-12-01T10:10:22.600Z,31.90
2018-12-01T10:11:22.545Z,34.00
2018-12-01T10:12:22.534Z,36.30
2018-12-01T10:13:23.247Z,29.70
2018-12-01T10:14:22.525Z,29.80
2018-12-01T10:15:23.827Z,31.00
2018-12-01T10:16:22.529Z,29.80
2018-12-01T10:17:22.524Z,29.60
2018-12-01T10:18:24.728Z,30.40
2018-12-01T10:19:22.466Z,31.00
2018-12-01T10:20:22.472Z,29.10
2018-12-01T10:21:23.264Z,29.80
2018-12-01T10:22:23.692Z,31.40
2018-12-01T10:23:22.425Z,30.30
2018-12-01T10:24:25.246Z,31.60
2018-12-01T10:25:22.434Z,29.00
2018-12-01T10:26:23.249Z,30.00
2018-12-01T10:27:23.398Z,29.60
2018-12-01T10:28:22.378Z,27.90
2018-12-01T10:29:22.358Z,28.20
2018-12-01T10:30:22.363Z,29.40
2018-12-01T10:31:22.406Z,29.10
2018-12-01T10:32:24.272Z,31.80
2018-12-01T10:33:23.253Z,35.00
2018-12-01T10:34:22.310Z,31.90
2018-12-01T10:35:22.298Z,31.10
2018-12-01T10:36:24.240Z,30.20
2018-12-01T10:37:23.211Z,28.60
2018-12-01T10:38:24.224Z,28.70
2018-12-01T10:39:23.247Z,28.10
2018-12-01T10:40:23.254Z,27.60
2018-12-01T10:41:22.234Z,26.90
2018-12-01T10:42:22.245Z,27.50
2018-12-01T10:43:22.751Z,27.80
2018-12-01T10:44:22.208Z,28.00
2018-12-01T10:45:22.755Z,27.60
2018-12-01T10:46:22.207Z,27.40
2018-12-01T10:47:22.178Z,27.10
2018-12-01T10:48:23.811Z,28.00
2018-12-01T10:49:22.787Z,26.30
2018-12-01T10:50:22.719Z,27.20
2018-12-01T10:51:26.216Z,26.50
2018-12-01T10:52:22.257Z,26.40
2018-12-01T10:53:22.152Z,27.90
2018-12-01T10:54:22.729Z,27.40
2018-12-01T10:55:22.776Z,28.00
2018-12-01T10:56:22.089Z,26.90
2018-12-01T10:57:22.066Z,26.90
2018-12-01T10:58:22.091Z,27.40
2018-12-01T10:59:24.777Z,27.60
2018-12-01T11:00:22.036Z,27.30
2018-12-01T11:01:22.035Z,27.00
2018-12-01T11:02:22.030Z,26.80
2018-12-01T11:03:22.007Z,26.70
2018-12-01T11:04:22.771Z,27.00
2018-12-01T11:05:24.762Z,26.20
2018-12-01T11:06:23.113Z,28.50
2018-12-01T11:07:22.001Z,26.70
2018-12-01T11:08:22.763Z,26.30
2018-12-01T11:09:22.006Z,26.70
2018-12-01T11:10:21.986Z,25.80
2018-12-01T11:11:21.945Z,27.00
2018-12-01T11:12:22.878Z,26.60
2018-12-01T11:13:22.896Z,26.70
2018-12-01T11:14:22.166Z,26.50
2018-12-01T11:15:21.908Z,26.50
2018-12-01T11:16:21.855Z,27.10
2018-12-01T11:17:21.876Z,26.20
2018-12-01T11:18:21.868Z,26.60
2018-12-01T11:19:21.843Z,25.90
2018-12-01T11:20:22.789Z,26.60
2018-12-01T11:21:22.728Z,26.20
2018-12-01T11:22:21.792Z,26.20
2018-12-01T11:23:21.794Z,25.30
2018-12-01T11:24:22.729Z,28.80
2018-12-01T11:25:24.780Z,26.60
2018-12-01T11:26:21.817Z,32.80
2018-12-01T11:27:21.739Z,28.80
2018-12-01T11:28:22.277Z,28.70
2018-12-01T11:29:22.257Z,28.20
2018-12-01T11:30:21.705Z,26.20
2018-12-01T11:31:21.728Z,27.20
2018-12-01T11:32:22.869Z,27.00
2018-12-01T11:33:21.780Z,27.90
2018-12-01T11:34:21.661Z,29.90
2018-12-01T11:35:21.664Z,26.70
2018-12-01T11:36:23.282Z,27.80
2018-12-01T11:37:22.272Z,27.30
2018-12-01T11:39:13.524Z,25.10
2018-12-01T11:40:15.380Z,26.00
2018-12-01T11:41:15.222Z,26.20
2018-12-01T11:42:13.543Z,26.70
2018-12-01T11:44:05.384Z,26.80
2018-12-01T11:45:05.358Z,27.00
2018-12-01T11:46:05.377Z,26.60
2018-12-01T11:47:05.322Z,25.50
2018-12-01T11:48:05.319Z,25.10
2018-12-01T11:49:07.232Z,26.60
2018-12-01T11:50:05.305Z,26.90
2018-12-01T11:51:06.089Z,28.90
2018-12-01T11:52:06.388Z,26.30
2018-12-01T11:53:06.088Z,24.60
2018-12-01T11:54:06.247Z,25.60
2018-12-01T11:55:05.275Z,25.30
2018-12-01T11:56:06.441Z,32.30
2018-12-01T11:57:05.219Z,26.90
2018-12-01T11:58:05.240Z,34.40
2018-12-01T11:59:07.057Z,26.20
2018-12-01T12:00:05.194Z,24.80
2018-12-01T12:01:07.365Z,26.50
2018-12-01T12:02:05.168Z,38.00
2018-12-01T12:03:05.179Z,35.40
2018-12-01T12:04:05.178Z,32.50
2018-12-01T12:05:06.092Z,33.80
2018-12-01T12:06:06.159Z,25.20
2018-12-01T12:07:05.226Z,25.10
2018-12-01T12:08:05.118Z,25.60
2018-12-01T12:09:05.092Z,25.70
2018-12-01T12:10:05.085Z,26.00
2018-12-01T12:11:06.071Z,31.70
2018-12-01T12:12:05.077Z,33.70
2018-12-01T12:13:05.146Z,38.00
2018-12-01T12:14:05.562Z,28.90
2018-12-01T12:15:06.019Z,52.70
2018-12-01T12:16:06.037Z,28.50
2018-12-01T12:17:05.069Z,33.30
2018-12-01T12:18:05.168Z,27.80
2018-12-01T12:19:05.000Z,27.60
2018-12-01T12:20:05.620Z,33.80
2018-12-01T12:21:05.972Z,40.50
2018-12-01T12:22:05.571Z,29.70
2018-12-01T12:23:06.658Z,29.90
2018-12-01T12:24:07.623Z,39.10
2018-12-01T12:25:07.676Z,28.00
2018-12-01T12:26:07.575Z,31.70
2018-12-01T12:27:06.727Z,32.70
2018-12-01T12:28:04.930Z,30.10
2018-12-01T12:29:06.170Z,28.40
2018-12-01T12:30:06.609Z,34.40
2018-12-01T12:31:05.027Z,30.50
2018-12-01T12:32:06.577Z,36.90
2018-12-01T12:33:05.986Z,29.10
2018-12-01T12:34:10.780Z,37.80
2018-12-01T12:35:06.625Z,27.50
2018-12-01T12:36:04.855Z,27.50
2018-12-01T12:37:06.645Z,33.40
2018-12-01T12:38:06.524Z,29.00
2018-12-01T12:39:04.875Z,27.40
2018-12-01T12:40:05.627Z,26.90
2018-12-01T12:41:04.774Z,36.30
2018-12-01T12:42:04.785Z,33.80
2018-12-01T12:43:05.641Z,28.60
2018-12-01T12:44:04.762Z,33.90
2018-12-01T12:45:07.604Z,37.50
2018-12-01T12:46:04.772Z,27.80
2018-12-01T12:47:04.738Z,41.20
2018-12-01T12:48:06.610Z,29.50
2018-12-01T12:49:04.684Z,39.10
2018-12-01T12:50:05.778Z,38.70
2018-12-01T12:51:04.689Z,36.10
2018-12-01T12:52:04.666Z,30.10
2018-12-01T12:53:04.625Z,28.60
2018-12-01T12:54:04.645Z,43.50
2018-12-01T12:55:04.617Z,38.70
2018-12-01T12:56:04.601Z,44.40
2018-12-01T12:57:05.607Z,31.50
2018-12-01T12:58:04.583Z,30.40
2018-12-01T12:59:05.104Z,35.20
2018-12-01T13:00:05.138Z,31.90
2018-12-01T13:01:04.563Z,35.60
2018-12-01T13:02:04.551Z,36.40
2018-12-01T13:03:05.097Z,29.30
2018-12-01T13:04:04.524Z,33.00
2018-12-01T13:05:04.533Z,38.40
2018-12-01T13:06:04.491Z,32.40
2018-12-01T13:07:05.152Z,27.40
2018-12-01T13:08:08.097Z,29.80
2018-12-01T13:09:04.739Z,39.90
2018-12-01T13:10:04.452Z,35.40
2018-12-01T13:11:04.452Z,35.30
2018-12-01T13:12:04.501Z,31.90
2018-12-01T13:13:04.424Z,33.80
2018-12-01T13:14:04.430Z,29.40
2018-12-01T13:15:04.414Z,31.00
2018-12-01T13:16:04.387Z,30.00
2018-12-01T13:17:04.372Z,32.60
2018-12-01T13:18:06.130Z,31.10
2018-12-01T13:19:04.409Z,27.00
2018-12-01T13:20:05.118Z,28.40
2018-12-01T13:21:05.327Z,32.80
2018-12-01T13:22:04.330Z,26.70
2018-12-01T13:23:05.050Z,29.70
2018-12-01T13:24:04.302Z,27.80